sensor_id;sensor_type;location;lat;lon;timestamp;pressure;altitude;pressure_sealevel;temperature;humidity
47670;BME280;33408;52.062;11.722;2023-03-16T00:01:49;101733.38;;;0.20;100.00
47670;BME280;33408;52.062;11.722;2023-03-16T00:04:16;101739.47;;;0.23;100.00
47670;BME280;33408;52.062;11.722;2023-03-16T00:06:43;101744.19;;;0.14;100.00
47670;BME280;33408;52.062;11.722;2023-03-16T00:09:10;101746.75;;;0.14;100.00
47670;BME280;33408;52.062;11.722;2023-03-16T00:11:37;101749.94;;;0.08;100.00
47670;BME280;33408;52.062;11.722;2023-03-16T00:14:04;101744.19;;;0.14;100.00
47670;BME280;33408;52.062;11.722;2023-03-16T00:16:30;101750.91;;;0.12;100.00
47670;BME280;33408;52.062;11.722;2023-03-16T00:18:57;101745.94;;;0.15;100.00
47670;BME280;33408;52.062;11.722;2023-03-16T00:21:24;101747.91;;;0.01;100.00
47670;BME280;33408;52.062;11.722;2023-03-16T00:23:52;101750.03;;;-0.10;100.00
47670;BME280;33408;52.062;11.722;2023-03-16T00:26:19;101747.31;;;-0.14;100.00
47670;BME280;33408;52.062;11.722;2023-03-16T00:28:46;101751.31;;;-0.20;100.00
47670;BME280;33408;52.062;11.722;2023-03-16T00:31:13;101749.53;;;-0.22;100.00
47670;BME280;33408;52.062;11.722;2023-03-16T00:33:40;101749.66;;;-0.19;100.00
47670;BME280;33408;52.062;11.722;2023-03-16T00:36:08;101746.41;;;-0.15;100.00
47670;BME280;33408;52.062;11.722;2023-03-16T00:38:37;101747.13;;;-0.19;100.00
47670;BME280;33408;52.062;11.722;2023-03-16T00:41:07;101751.44;;;-0.16;100.00
47670;BME280;33408;52.062;11.722;2023-03-16T00:43:35;101742.00;;;-0.19;100.00
47670;BME280;33408;52.062;11.722;2023-03-16T00:46:05;101749.25;;;-0.28;100.00
47670;BME280;33408;52.062;11.722;2023-03-16T00:48:33;101745.84;;;-0.29;100.00
47670;BME280;33408;52.062;11.722;2023-03-16T00:51:00;101746.84;;;-0.25;100.00
47670;BME280;33408;52.062;11.722;2023-03-16T00:53:27;101743.19;;;-0.32;100.00
47670;BME280;33408;52.062;11.722;2023-03-16T00:55:53;101749.63;;;-0.40;100.00
47670;BME280;33408;52.062;11.722;2023-03-16T00:58:21;101747.22;;;-0.37;100.00
47670;BME280;33408;52.062;11.722;2023-03-16T01:00:48;101749.63;;;-0.40;100.00
47670;BME280;33408;52.062;11.722;2023-03-16T01:03:17;101744.53;;;-0.40;100.00
47670;BME280;33408;52.062;11.722;2023-03-16T01:05:44;101745.53;;;-0.37;100.00
47670;BME280;33408;52.062;11.722;2023-03-16T01:08:10;101754.84;;;-0.37;100.00
47670;BME280;33408;52.062;11.722;2023-03-16T01:10:37;101745.13;;;-0.46;100.00
47670;BME280;33408;52.062;11.722;2023-03-16T01:13:05;101742.06;;;-0.39;100.00
47670;BME280;33408;52.062;11.722;2023-03-16T01:15:33;101747.16;;;-0.39;100.00
47670;BME280;33408;52.062;11.722;2023-03-16T01:18:00;101741.16;;;-0.39;100.00
47670;BME280;33408;52.062;11.722;2023-03-16T01:20:27;101740.81;;;-0.47;100.00
47670;BME280;33408;52.062;11.722;2023-03-16T01:22:53;101733.47;;;-0.60;100.00
47670;BME280;33408;52.062;11.722;2023-03-16T01:25:20;101741.19;;;-0.59;100.00
47670;BME280;33408;52.062;11.722;2023-03-16T01:27:48;101735.38;;;-0.56;100.00
47670;BME280;33408;52.062;11.722;2023-03-16T01:30:15;101728.00;;;-0.50;100.00
47670;BME280;33408;52.062;11.722;2023-03-16T01:32:43;101726.81;;;-0.57;100.00
47670;BME280;33408;52.062;11.722;2023-03-16T01:35:09;101730.34;;;-0.54;100.00
47670;BME280;33408;52.062;11.722;2023-03-16T01:37:36;101729.31;;;-0.58;100.00
47670;BME280;33408;52.062;11.722;2023-03-16T01:40:03;101728.38;;;-0.60;100.00
47670;BME280;33408;52.062;11.722;2023-03-16T01:42:31;101727.31;;;-0.65;100.00
47670;BME280;33408;52.062;11.722;2023-03-16T01:44:59;101732.53;;;-0.62;100.00
47670;BME280;33408;52.062;11.722;2023-03-16T01:47:29;101732.13;;;-0.71;100.00
47670;BME280;33408;52.062;11.722;2023-03-16T01:50:04;101724.84;;;-0.64;100.00
47670;BME280;33408;52.062;11.722;2023-03-16T01:52:32;101728.09;;;-0.66;100.00
47670;BME280;33408;52.062;11.722;2023-03-16T01:55:04;101732.41;;;-0.65;100.00
47670;BME280;33408;52.062;11.722;2023-03-16T01:57:34;101728.78;;;-0.70;100.00
47670;BME280;33408;52.062;11.722;2023-03-16T02:00:06;101719.34;;;-0.73;100.00
47670;BME280;33408;52.062;11.722;2023-03-16T02:02:35;101718.34;;;-0.77;100.00
47670;BME280;33408;52.062;11.722;2023-03-16T02:05:09;101723.56;;;-0.74;100.00
47670;BME280;33408;52.062;11.722;2023-03-16T02:07:40;101723.78;;;-0.69;100.00
47670;BME280;33408;52.062;11.722;2023-03-16T02:10:10;101720.16;;;-0.74;100.00
47670;BME280;33408;52.062;11.722;2023-03-16T02:12:37;101716.59;;;-0.78;100.00
47670;BME280;33408;52.062;11.722;2023-03-16T02:15:05;101720.59;;;-0.83;100.00
47670;BME280;33408;52.062;11.722;2023-03-16T02:17:33;101717.66;;;-0.92;100.00
47670;BME280;33408;52.062;11.722;2023-03-16T02:20:11;101717.34;;;-0.80;100.00
47670;BME280;33408;52.062;11.722;2023-03-16T02:22:44;101713.38;;;-0.93;100.00
47670;BME280;33408;52.062;11.722;2023-03-16T02:25:13;101713.31;;;-0.95;100.00
47670;BME280;33408;52.062;11.722;2023-03-16T02:27:47;101705.13;;;-0.87;100.00
47670;BME280;33408;52.062;11.722;2023-03-16T02:30:19;101710.09;;;-0.90;100.00
47670;BME280;33408;52.062;11.722;2023-03-16T02:32:48;101709.44;;;-0.86;100.00
47670;BME280;33408;52.062;11.722;2023-03-16T02:35:17;101712.19;;;-0.82;100.00
47670;BME280;33408;52.062;11.722;2023-03-16T02:37:44;101712.97;;;-0.83;100.00
47670;BME280;33408;52.062;11.722;2023-03-16T02:40:19;101714.66;;;-0.83;100.00
47670;BME280;33408;52.062;11.722;2023-03-16T02:42:47;101710.69;;;-0.96;100.00
47670;BME280;33408;52.062;11.722;2023-03-16T02:45:20;101712.56;;;-0.92;100.00
47670;BME280;33408;52.062;11.722;2023-03-16T02:47:48;101713.47;;;-1.10;100.00
47670;BME280;33408;52.062;11.722;2023-03-16T02:50:17;101724.84;;;-1.21;100.00
47670;BME280;33408;52.062;11.722;2023-03-16T02:52:44;101720.28;;;-1.28;100.00
47670;BME280;33408;52.062;11.722;2023-03-16T02:55:12;101731.25;;;-1.29;100.00
47670;BME280;33408;52.062;11.722;2023-03-16T02:57:39;101730.69;;;-1.23;100.00
47670;BME280;33408;52.062;11.722;2023-03-16T03:00:07;101729.69;;;-1.27;100.00
47670;BME280;33408;52.062;11.722;2023-03-16T03:02:39;101737.81;;;-1.34;100.00
47670;BME280;33408;52.062;11.722;2023-03-16T03:05:06;101744.66;;;-1.33;100.00
47670;BME280;33408;52.062;11.722;2023-03-16T03:07:33;101737.38;;;-1.43;100.00
47670;BME280;33408;52.062;11.722;2023-03-16T03:09:59;101742.47;;;-1.43;100.00
47670;BME280;33408;52.062;11.722;2023-03-16T03:12:30;101736.50;;;-1.44;100.00
47670;BME280;33408;52.062;11.722;2023-03-16T03:14:57;101734.34;;;-1.54;100.00
47670;BME280;33408;52.062;11.722;2023-03-16T03:17:23;101744.31;;;-1.59;100.00
47670;BME280;33408;52.062;11.722;2023-03-16T03:19:56;101739.50;;;-1.53;100.00
47670;BME280;33408;52.062;11.722;2023-03-16T03:22:23;101742.28;;;-1.48;100.00
47670;BME280;33408;52.062;11.722;2023-03-16T03:24:51;101741.84;;;-1.57;100.00
47670;BME280;33408;52.062;11.722;2023-03-16T03:27:18;101744.94;;;-1.63;100.00
47670;BME280;33408;52.062;11.722;2023-03-16T03:29:44;101741.31;;;-1.50;100.00
47670;BME280;33408;52.062;11.722;2023-03-16T03:32:11;101733.69;;;-1.50;100.00
47670;BME280;33408;52.062;11.722;2023-03-16T03:34:38;101735.19;;;-1.36;100.00
47670;BME280;33408;52.062;11.722;2023-03-16T03:37:08;101735.41;;;-1.31;100.00
47670;BME280;33408;52.062;11.722;2023-03-16T03:39:35;101734.84;;;-1.43;100.00
47670;BME280;33408;52.062;11.722;2023-03-16T03:42:04;101726.91;;;-1.32;100.00
47670;BME280;33408;52.062;11.722;2023-03-16T03:44:30;101733.47;;;-1.37;100.00
47670;BME280;33408;52.062;11.722;2023-03-16T03:46:59;101728.00;;;-1.26;100.00
47670;BME280;33408;52.062;11.722;2023-03-16T03:49:26;101727.13;;;-1.27;100.00
47670;BME280;33408;52.062;11.722;2023-03-16T03:51:53;101730.41;;;-1.30;100.00
47670;BME280;33408;52.062;11.722;2023-03-16T03:54:21;101732.06;;;-1.30;100.00
47670;BME280;33408;52.062;11.722;2023-03-16T03:56:47;101729.16;;;-1.38;100.00
47670;BME280;33408;52.062;11.722;2023-03-16T03:59:14;101735.34;;;-1.33;100.00
47670;BME280;33408;52.062;11.722;2023-03-16T04:01:40;101733.31;;;-1.40;100.00
47670;BME280;33408;52.062;11.722;2023-03-16T04:04:07;101733.59;;;-1.34;100.00
47670;BME280;33408;52.062;11.722;2023-03-16T04:06:34;101733.25;;;-1.41;100.00
47670;BME280;33408;52.062;11.722;2023-03-16T04:09:00;101732.03;;;-1.50;100.00
47670;BME280;33408;52.062;11.722;2023-03-16T04:11:28;101735.22;;;-1.54;100.00
47670;BME280;33408;52.062;11.722;2023-03-16T04:13:55;101736.50;;;-1.44;100.00
47670;BME280;33408;52.062;11.722;2023-03-16T04:16:22;101739.72;;;-1.48;100.00
47670;BME280;33408;52.062;11.722;2023-03-16T04:18:51;101734.75;;;-1.45;100.00
47670;BME280;33408;52.062;11.722;2023-03-16T04:21:19;101730.41;;;-1.48;100.00
47670;BME280;33408;52.062;11.722;2023-03-16T04:23:46;101725.41;;;-1.46;100.00
47670;BME280;33408;52.062;11.722;2023-03-16T04:26:12;101734.03;;;-1.42;100.00
47670;BME280;33408;52.062;11.722;2023-03-16T04:28:40;101731.50;;;-1.42;100.00
47670;BME280;33408;52.062;11.722;2023-03-16T04:31:08;101742.53;;;-1.42;100.00
47670;BME280;33408;52.062;11.722;2023-03-16T04:33:36;101740.50;;;-1.31;100.00
47670;BME280;33408;52.062;11.722;2023-03-16T04:36:05;101741.09;;;-1.37;100.00
47670;BME280;33408;52.062;11.722;2023-03-16T04:38:33;101737.03;;;-1.33;100.00
47670;BME280;33408;52.062;11.722;2023-03-16T04:41:00;101732.44;;;-1.40;100.00
47670;BME280;33408;52.062;11.722;2023-03-16T04:43:26;101736.50;;;-1.44;100.00
47670;BME280;33408;52.062;11.722;2023-03-16T04:45:54;101737.59;;;-1.39;100.00
47670;BME280;33408;52.062;11.722;2023-03-16T04:48:21;101743.50;;;-1.40;100.00
47670;BME280;33408;52.062;11.722;2023-03-16T04:50:50;101742.38;;;-1.45;100.00
47670;BME280;33408;52.062;11.722;2023-03-16T04:53:16;101744.94;;;-1.45;100.00
47670;BME280;33408;52.062;11.722;2023-03-16T04:55:43;101747.84;;;-1.37;100.00
47670;BME280;33408;52.062;11.722;2023-03-16T04:58:10;101748.66;;;-1.38;100.00
47670;BME280;33408;52.062;11.722;2023-03-16T05:00:38;101742.69;;;-1.39;100.00
47670;BME280;33408;52.062;11.722;2023-03-16T05:03:06;101747.69;;;-1.40;100.00
47670;BME280;33408;52.062;11.722;2023-03-16T05:05:34;101751.78;;;-1.44;100.00
47670;BME280;33408;52.062;11.722;2023-03-16T05:08:01;101745.16;;;-1.40;100.00
47670;BME280;33408;52.062;11.722;2023-03-16T05:10:30;101747.75;;;-1.39;100.00
47670;BME280;33408;52.062;11.722;2023-03-16T05:12:58;101745.16;;;-1.40;100.00
47670;BME280;33408;52.062;11.722;2023-03-16T05:15:25;101744.94;;;-1.45;100.00
47670;BME280;33408;52.062;11.722;2023-03-16T05:17:53;101740.44;;;-1.51;100.00
47670;BME280;33408;52.062;11.722;2023-03-16T05:20:22;101755.09;;;-1.45;100.00
47670;BME280;33408;52.062;11.722;2023-03-16T05:22:49;101748.59;;;-1.40;100.00
47670;BME280;33408;52.062;11.722;2023-03-16T05:25:16;101753.44;;;-1.44;100.00
47670;BME280;33408;52.062;11.722;2023-03-16T05:27:45;101750.63;;;-1.51;100.00
47670;BME280;33408;52.062;11.722;2023-03-16T05:30:13;101753.91;;;-1.35;100.00
47670;BME280;33408;52.062;11.722;2023-03-16T05:32:41;101760.69;;;-1.34;100.00
47670;BME280;33408;52.062;11.722;2023-03-16T05:35:08;101751.84;;;-1.42;100.00
47670;BME280;33408;52.062;11.722;2023-03-16T05:37:39;101754.53;;;-1.39;100.00
47670;BME280;33408;52.062;11.722;2023-03-16T05:40:07;101755.69;;;-1.33;100.00
47670;BME280;33408;52.062;11.722;2023-03-16T05:42:41;101763.78;;;-1.41;100.00
47670;BME280;33408;52.062;11.722;2023-03-16T05:45:09;101764.56;;;-1.42;100.00
47670;BME280;33408;52.062;11.722;2023-03-16T05:47:36;101769.16;;;-1.35;100.00
47670;BME280;33408;52.062;11.722;2023-03-16T05:50:03;101761.50;;;-1.71;100.00
47670;BME280;33408;52.062;11.722;2023-03-16T05:52:29;101769.72;;;-1.59;100.00
47670;BME280;33408;52.062;11.722;2023-03-16T05:54:57;101764.19;;;-1.50;100.00
47670;BME280;33408;52.062;11.722;2023-03-16T05:57:24;101761.63;;;-1.32;100.00
47670;BME280;33408;52.062;11.722;2023-03-16T05:59:50;101769.63;;;-1.24;100.00
47670;BME280;33408;52.062;11.722;2023-03-16T06:02:18;101768.91;;;-1.22;100.00
47670;BME280;33408;52.062;11.722;2023-03-16T06:04:44;101761.94;;;-1.26;100.00
47670;BME280;33408;52.062;11.722;2023-03-16T06:07:11;101765.28;;;-1.27;100.00
47670;BME280;33408;52.062;11.722;2023-03-16T06:09:37;101767.72;;;-1.11;100.00
47670;BME280;33408;52.062;11.722;2023-03-16T06:12:07;101756.66;;;-0.93;100.00
47670;BME280;33408;52.062;11.722;2023-03-16T06:14:34;101756.25;;;-0.63;100.00
47670;BME280;33408;52.062;11.722;2023-03-16T06:17:01;101763.81;;;-0.65;100.00
47670;BME280;33408;52.062;11.722;2023-03-16T06:19:28;101762.81;;;-0.68;100.00
47670;BME280;33408;52.062;11.722;2023-03-16T06:21:54;101763.31;;;-0.58;100.00
47670;BME280;33408;52.062;11.722;2023-03-16T06:24:21;101765.97;;;-0.35;100.00
47670;BME280;33408;52.062;11.722;2023-03-16T06:26:47;101774.63;;;-0.31;100.00
47670;BME280;33408;52.062;11.722;2023-03-16T06:29:15;101776.88;;;-0.38;100.00
47670;BME280;33408;52.062;11.722;2023-03-16T06:31:42;101770.50;;;-0.28;100.00
47670;BME280;33408;52.062;11.722;2023-03-16T06:34:08;101772.59;;;-0.19;100.00
47670;BME280;33408;52.062;11.722;2023-03-16T06:36:35;101773.91;;;-0.08;100.00
47670;BME280;33408;52.062;11.722;2023-03-16T06:39:04;101764.13;;;-0.18;100.00
47670;BME280;33408;52.062;11.722;2023-03-16T06:41:30;101760.59;;;-0.01;100.00
47670;BME280;33408;52.062;11.722;2023-03-16T06:43:57;101756.41;;;-0.20;100.00
47670;BME280;33408;52.062;11.722;2023-03-16T06:46:25;101764.19;;;-0.16;100.00
47670;BME280;33408;52.062;11.722;2023-03-16T06:48:52;101772.63;;;-0.39;100.00
47670;BME280;33408;52.062;11.722;2023-03-16T06:51:19;101775.16;;;-0.19;100.00
47670;BME280;33408;52.062;11.722;2023-03-16T06:53:46;101777.00;;;-0.15;100.00
47670;BME280;33408;52.062;11.722;2023-03-16T06:56:12;101777.09;;;0.08;100.00
47670;BME280;33408;52.062;11.722;2023-03-16T06:58:39;101777.16;;;0.30;100.00
47670;BME280;33408;52.062;11.722;2023-03-16T07:01:06;101776.34;;;0.52;100.00
47670;BME280;33408;52.062;11.722;2023-03-16T07:03:34;101776.72;;;0.41;100.00
47670;BME280;33408;52.062;11.722;2023-03-16T07:06:00;101774.69;;;0.54;100.00
47670;BME280;33408;52.062;11.722;2023-03-16T07:08:27;101767.69;;;0.49;100.00
47670;BME280;33408;52.062;11.722;2023-03-16T07:10:53;101767.25;;;0.82;100.00
47670;BME280;33408;52.062;11.722;2023-03-16T07:13:20;101768.19;;;0.84;100.00
47670;BME280;33408;52.062;11.722;2023-03-16T07:15:49;101769.34;;;0.92;100.00
47670;BME280;33408;52.062;11.722;2023-03-16T07:18:16;101778.34;;;1.05;100.00
47670;BME280;33408;52.062;11.722;2023-03-16T07:20:44;101779.16;;;1.04;100.00
47670;BME280;33408;52.062;11.722;2023-03-16T07:23:11;101782.13;;;1.39;100.00
47670;BME280;33408;52.062;11.722;2023-03-16T07:25:38;101784.41;;;1.31;100.00
47670;BME280;33408;52.062;11.722;2023-03-16T07:28:04;101789.31;;;1.49;100.00
47670;BME280;33408;52.062;11.722;2023-03-16T07:30:31;101792.09;;;1.55;100.00
47670;BME280;33408;52.062;11.722;2023-03-16T07:32:58;101795.88;;;1.42;100.00
47670;BME280;33408;52.062;11.722;2023-03-16T07:35:24;101801.69;;;1.62;100.00
47670;BME280;33408;52.062;11.722;2023-03-16T07:37:53;101801.09;;;1.94;100.00
47670;BME280;33408;52.062;11.722;2023-03-16T07:40:19;101795.34;;;2.01;100.00
47670;BME280;33408;52.062;11.722;2023-03-16T07:42:46;101806.91;;;1.90;100.00
47670;BME280;33408;52.062;11.722;2023-03-16T07:45:13;101802.13;;;1.99;100.00
47670;BME280;33408;52.062;11.722;2023-03-16T07:47:42;101810.50;;;1.95;100.00
47670;BME280;33408;52.062;11.722;2023-03-16T07:50:11;101813.63;;;2.12;100.00
47670;BME280;33408;52.062;11.722;2023-03-16T07:52:40;101814.53;;;2.14;100.00
47670;BME280;33408;52.062;11.722;2023-03-16T07:55:08;101820.13;;;2.28;100.00
47670;BME280;33408;52.062;11.722;2023-03-16T07:57:35;101819.19;;;2.51;100.00
47670;BME280;33408;52.062;11.722;2023-03-16T08:00:04;101819.38;;;2.30;100.00
47670;BME280;33408;52.062;11.722;2023-03-16T08:02:32;101822.03;;;2.61;100.00
47670;BME280;33408;52.062;11.722;2023-03-16T08:04:58;101824.69;;;2.64;100.00
47670;BME280;33408;52.062;11.722;2023-03-16T08:07:25;101827.44;;;2.70;100.00
47670;BME280;33408;52.062;11.722;2023-03-16T08:09:52;101823.06;;;2.93;100.00
47670;BME280;33408;52.062;11.722;2023-03-16T08:12:20;101829.84;;;3.21;100.00
47670;BME280;33408;52.062;11.722;2023-03-16T08:14:47;101823.91;;;2.94;100.00
47670;BME280;33408;52.062;11.722;2023-03-16T08:17:13;101832.69;;;3.02;100.00
47670;BME280;33408;52.062;11.722;2023-03-16T08:19:40;101834.25;;;3.25;100.00
47670;BME280;33408;52.062;11.722;2023-03-16T08:22:06;101832.00;;;3.36;100.00
47670;BME280;33408;52.062;11.722;2023-03-16T08:24:33;101826.41;;;3.50;100.00
47670;BME280;33408;52.062;11.722;2023-03-16T08:27:00;101820.91;;;3.68;100.00
47670;BME280;33408;52.062;11.722;2023-03-16T08:29:28;101818.72;;;3.81;100.00
47670;BME280;33408;52.062;11.722;2023-03-16T08:31:54;101824.53;;;3.74;100.00
47670;BME280;33408;52.062;11.722;2023-03-16T08:34:22;101821.28;;;3.81;100.00
47670;BME280;33408;52.062;11.722;2023-03-16T08:36:49;101820.53;;;4.17;100.00
47670;BME280;33408;52.062;11.722;2023-03-16T08:39:16;101836.06;;;3.90;100.00
47670;BME280;33408;52.062;11.722;2023-03-16T08:41:42;101835.34;;;4.29;100.00
47670;BME280;33408;52.062;11.722;2023-03-16T08:44:10;101833.50;;;4.24;100.00
47670;BME280;33408;52.062;11.722;2023-03-16T08:46:38;101839.91;;;4.40;100.00
47670;BME280;33408;52.062;11.722;2023-03-16T08:49:06;101832.72;;;4.26;100.00
47670;BME280;33408;52.062;11.722;2023-03-16T08:51:33;101839.59;;;4.62;100.00
47670;BME280;33408;52.062;11.722;2023-03-16T08:53:59;101838.53;;;4.90;100.00
47670;BME280;33408;52.062;11.722;2023-03-16T08:56:26;101827.41;;;4.91;100.00
47670;BME280;33408;52.062;11.722;2023-03-16T08:58:53;101839.69;;;4.67;100.00
47670;BME280;33408;52.062;11.722;2023-03-16T09:01:19;101833.88;;;4.74;100.00
47670;BME280;33408;52.062;11.722;2023-03-16T09:03:47;101831.28;;;5.10;100.00
47670;BME280;33408;52.062;11.722;2023-03-16T09:06:16;101822.13;;;4.85;100.00
47670;BME280;33408;52.062;11.722;2023-03-16T09:08:42;101828.88;;;5.20;100.00
47670;BME280;33408;52.062;11.722;2023-03-16T09:11:10;101824.69;;;5.23;100.00
47670;BME280;33408;52.062;11.722;2023-03-16T09:13:38;101816.31;;;5.34;100.00
47670;BME280;33408;52.062;11.722;2023-03-16T09:16:06;101818.38;;;5.52;100.00
47670;BME280;33408;52.062;11.722;2023-03-16T09:18:33;101810.38;;;5.36;99.86
47670;BME280;33408;52.062;11.722;2023-03-16T09:21:04;101802.06;;;5.50;98.99
47670;BME280;33408;52.062;11.722;2023-03-16T09:23:32;101801.22;;;5.49;97.21
47670;BME280;33408;52.062;11.722;2023-03-16T09:26:03;101794.91;;;5.79;96.39
47670;BME280;33408;52.062;11.722;2023-03-16T09:28:32;101801.63;;;5.71;98.43
47670;BME280;33408;52.062;11.722;2023-03-16T09:31:00;101803.38;;;5.73;98.88
47670;BME280;33408;52.062;11.722;2023-03-16T09:33:28;101797.16;;;5.63;99.29
47670;BME280;33408;52.062;11.722;2023-03-16T09:35:56;101810.16;;;5.70;99.01
47670;BME280;33408;52.062;11.722;2023-03-16T09:38:25;101808.84;;;5.92;97.66
47670;BME280;33408;52.062;11.722;2023-03-16T09:40:57;101798.63;;;5.95;94.74
47670;BME280;33408;52.062;11.722;2023-03-16T09:46:25;101802.81;;;5.90;92.97
47670;BME280;33408;52.062;11.722;2023-03-16T09:48:54;101809.84;;;5.97;92.99
47670;BME280;33408;52.062;11.722;2023-03-16T09:51:38;101811.78;;;6.09;90.63
47670;BME280;33408;52.062;11.722;2023-03-16T09:54:17;101808.78;;;5.87;90.28
47670;BME280;33408;52.062;11.722;2023-03-16T09:56:47;101812.47;;;6.00;87.95
47670;BME280;33408;52.062;11.722;2023-03-16T09:59:16;101814.72;;;5.83;86.59
47670;BME280;33408;52.062;11.722;2023-03-16T10:01:51;101813.25;;;5.96;86.68
47670;BME280;33408;52.062;11.722;2023-03-16T10:04:33;101811.41;;;5.90;85.59
47670;BME280;33408;52.062;11.722;2023-03-16T10:07:17;101814.09;;;6.45;83.30
47670;BME280;33408;52.062;11.722;2023-03-16T10:09:53;101809.47;;;6.26;82.10
47670;BME280;33408;52.062;11.722;2023-03-16T10:12:25;101807.13;;;6.38;82.06
47670;BME280;33408;52.062;11.722;2023-03-16T10:14:57;101801.09;;;6.39;82.56
47670;BME280;33408;52.062;11.722;2023-03-16T10:17:32;101794.56;;;6.60;78.14
47670;BME280;33408;52.062;11.722;2023-03-16T10:20:05;101785.78;;;6.48;80.65
47670;BME280;33408;52.062;11.722;2023-03-16T10:22:38;101793.94;;;6.78;81.46
47670;BME280;33408;52.062;11.722;2023-03-16T10:25:15;101788.66;;;6.67;79.16
47670;BME280;33408;52.062;11.722;2023-03-16T10:27:44;101780.94;;;6.67;76.39
47670;BME280;33408;52.062;11.722;2023-03-16T10:30:21;101781.13;;;6.82;78.77
47670;BME280;33408;52.062;11.722;2023-03-16T10:32:49;101785.31;;;6.74;78.81
47670;BME280;33408;52.062;11.722;2023-03-16T10:35:26;101774.00;;;6.64;77.57
47670;BME280;33408;52.062;11.722;2023-03-16T10:37:54;101760.88;;;7.11;75.25
47670;BME280;33408;52.062;11.722;2023-03-16T10:40:23;101755.78;;;7.15;73.29
47670;BME280;33408;52.062;11.722;2023-03-16T10:42:50;101753.91;;;7.01;74.25
47670;BME280;33408;52.062;11.722;2023-03-16T10:45:24;101750.69;;;7.21;71.26
47670;BME280;33408;52.062;11.722;2023-03-16T10:47:52;101761.72;;;7.07;69.29
47670;BME280;33408;52.062;11.722;2023-03-16T10:50:24;101748.00;;;7.13;71.51
47670;BME280;33408;52.062;11.722;2023-03-16T10:52:53;101750.75;;;7.25;70.19
47670;BME280;33408;52.062;11.722;2023-03-16T10:55:25;101743.00;;;7.25;65.32
47670;BME280;33408;52.062;11.722;2023-03-16T10:57:54;101746.91;;;7.69;66.11
47670;BME280;33408;52.062;11.722;2023-03-16T11:00:25;101745.81;;;7.44;64.47
47670;BME280;33408;52.062;11.722;2023-03-16T11:02:54;101746.69;;;7.46;61.53
47670;BME280;33408;52.062;11.722;2023-03-16T11:05:27;101742.47;;;7.53;59.82
47670;BME280;33408;52.062;11.722;2023-03-16T11:07:58;101740.63;;;7.42;60.89
47670;BME280;33408;52.062;11.722;2023-03-16T11:10:32;101743.25;;;7.45;61.11
47670;BME280;33408;52.062;11.722;2023-03-16T11:13:05;101744.19;;;7.52;61.38
47670;BME280;33408;52.062;11.722;2023-03-16T11:15:36;101732.94;;;7.48;64.04
47670;BME280;33408;52.062;11.722;2023-03-16T11:18:05;101738.47;;;7.82;64.51
47670;BME280;33408;52.062;11.722;2023-03-16T11:20:35;101742.63;;;7.73;60.06
47670;BME280;33408;52.062;11.722;2023-03-16T11:23:05;101745.81;;;7.47;60.53
47670;BME280;33408;52.062;11.722;2023-03-16T11:25:36;101752.97;;;7.70;63.51
47670;BME280;33408;52.062;11.722;2023-03-16T11:28:10;101739.34;;;7.88;60.02
47670;BME280;33408;52.062;11.722;2023-03-16T11:30:40;101737.44;;;7.65;59.44
47670;BME280;33408;52.062;11.722;2023-03-16T11:33:09;101736.69;;;7.78;58.72
47670;BME280;33408;52.062;11.722;2023-03-16T11:35:41;101741.63;;;7.55;60.04
47670;BME280;33408;52.062;11.722;2023-03-16T11:38:14;101733.94;;;7.61;59.82
47670;BME280;33408;52.062;11.722;2023-03-16T11:40:53;101731.53;;;7.78;59.79
47670;BME280;33408;52.062;11.722;2023-03-16T11:43:46;101718.94;;;8.17;61.22
47670;BME280;33408;52.062;11.722;2023-03-16T11:46:16;101720.63;;;8.13;62.49
47670;BME280;33408;52.062;11.722;2023-03-16T11:48:59;101709.38;;;8.03;58.07
47670;BME280;33408;52.062;11.722;2023-03-16T11:51:42;101698.28;;;8.17;57.38
47670;BME280;33408;52.062;11.722;2023-03-16T11:54:28;101701.69;;;8.16;57.76
47670;BME280;33408;52.062;11.722;2023-03-16T11:57:05;101682.88;;;8.35;56.34
47670;BME280;33408;52.062;11.722;2023-03-16T11:59:50;101686.56;;;8.70;55.67
47670;BME280;33408;52.062;11.722;2023-03-16T12:02:38;101678.00;;;8.86;57.77
47670;BME280;33408;52.062;11.722;2023-03-16T12:08:31;101663.34;;;8.87;56.58
47670;BME280;33408;52.062;11.722;2023-03-16T12:11:04;101657.25;;;8.68;57.16
47670;BME280;33408;52.062;11.722;2023-03-16T12:13:42;101655.66;;;9.08;57.11
47670;BME280;33408;52.062;11.722;2023-03-16T12:16:16;101653.09;;;9.15;57.09
47670;BME280;33408;52.062;11.722;2023-03-16T12:18:47;101652.97;;;8.73;59.12
47670;BME280;33408;52.062;11.722;2023-03-16T12:21:19;101640.03;;;8.73;55.83
47670;BME280;33408;52.062;11.722;2023-03-16T12:23:50;101647.03;;;9.00;55.30
47670;BME280;33408;52.062;11.722;2023-03-16T12:26:19;101645.28;;;8.96;54.40
47670;BME280;33408;52.062;11.722;2023-03-16T12:28:48;101644.34;;;8.75;53.55
47670;BME280;33408;52.062;11.722;2023-03-16T12:31:18;101643.53;;;8.84;54.73
47670;BME280;33408;52.062;11.722;2023-03-16T12:34:06;101642.69;;;8.98;54.29
47670;BME280;33408;52.062;11.722;2023-03-16T12:37:04;101635.81;;;9.04;55.21
47670;BME280;33408;52.062;11.722;2023-03-16T12:39:57;101635.00;;;9.27;53.72
47670;BME280;33408;52.062;11.722;2023-03-16T12:42:47;101622.03;;;9.19;54.02
47670;BME280;33408;52.062;11.722;2023-03-16T12:45:25;101631.50;;;9.06;54.88
47670;BME280;33408;52.062;11.722;2023-03-16T12:47:58;101626.34;;;9.12;50.78
47670;BME280;33408;52.062;11.722;2023-03-16T12:50:29;101622.91;;;9.12;47.23
47670;BME280;33408;52.062;11.722;2023-03-16T12:52:56;101625.47;;;9.04;47.35
47670;BME280;33408;52.062;11.722;2023-03-16T12:55:24;101613.34;;;8.82;47.91